createdAt,value
2022-08-28T00:01:22.951Z,21.87
2022-08-28T00:03:49.247Z,21.86
2022-08-28T00:06:15.670Z,21.83
2022-08-28T00:08:42.012Z,21.82
2022-08-28T00:11:08.415Z,21.82
2022-08-28T00:13:34.889Z,21.81
2022-08-28T00:16:01.357Z,21.80
2022-08-28T00:18:28.118Z,21.79
2022-08-28T00:20:54.788Z,21.78
2022-08-28T00:23:21.296Z,21.75
2022-08-28T00:25:49.520Z,21.73
2022-08-28T00:28:23.376Z,21.72
2022-08-28T00:30:50.965Z,21.70
2022-08-28T00:33:17.538Z,21.68
2022-08-28T00:35:45.246Z,21.67
2022-08-28T00:38:13.153Z,21.65
2022-08-28T00:40:41.203Z,21.62
2022-08-28T00:43:07.570Z,21.61
2022-08-28T00:45:38.790Z,21.60
2022-08-28T00:48:06.164Z,21.58
2022-08-28T00:50:32.470Z,21.56
2022-08-28T00:52:58.803Z,21.54
2022-08-28T00:55:27.584Z,21.51
2022-08-28T00:57:54.254Z,21.52
2022-08-28T01:00:20.597Z,21.49
2022-08-28T01:02:47.143Z,21.48
2022-08-28T01:05:16.585Z,21.46
2022-08-28T01:07:43.046Z,21.44
2022-08-28T01:10:09.508Z,21.42
2022-08-28T01:12:35.885Z,21.41
2022-08-28T01:15:02.243Z,21.38
2022-08-28T01:17:28.841Z,21.38
2022-08-28T01:19:55.307Z,21.35
2022-08-28T01:22:21.910Z,21.34
2022-08-28T01:24:48.241Z,21.31
2022-08-28T01:27:14.825Z,21.30
2022-08-28T01:29:41.114Z,21.27
2022-08-28T01:32:11.092Z,21.26
2022-08-28T01:34:37.496Z,21.22
2022-08-28T01:37:03.810Z,21.21
2022-08-28T01:39:30.194Z,21.19
2022-08-28T01:41:56.467Z,21.18
2022-08-28T01:44:22.935Z,21.17
2022-08-28T01:46:49.658Z,21.16
2022-08-28T01:49:15.991Z,21.13
2022-08-28T01:51:42.275Z,21.11
2022-08-28T01:54:08.616Z,21.10
2022-08-28T01:56:37.640Z,21.08
2022-08-28T01:59:06.067Z,21.08
2022-08-28T02:01:32.412Z,21.07
2022-08-28T02:03:58.822Z,21.05
2022-08-28T02:06:25.087Z,21.03
2022-08-28T02:08:57.297Z,21.01
2022-08-28T02:11:23.662Z,21.00
2022-08-28T02:13:51.202Z,20.98
2022-08-28T02:16:20.605Z,20.97
2022-08-28T02:18:46.928Z,20.96
2022-08-28T02:21:13.212Z,20.93
2022-08-28T02:23:39.498Z,20.91
2022-08-28T02:26:06.028Z,20.91
2022-08-28T02:28:32.316Z,20.89
2022-08-28T02:30:59.681Z,20.87
2022-08-28T02:33:26.247Z,20.86
2022-08-28T02:35:52.593Z,20.83
2022-08-28T02:38:18.980Z,20.81
2022-08-28T02:40:45.244Z,20.79
2022-08-28T02:43:11.692Z,20.77
2022-08-28T02:45:38.029Z,20.76
2022-08-28T02:48:04.338Z,20.73
2022-08-28T02:50:41.969Z,20.71
2022-08-28T02:53:08.329Z,20.70
2022-08-28T02:55:37.061Z,20.68
2022-08-28T02:58:03.462Z,20.66
2022-08-28T03:00:29.861Z,20.65
2022-08-28T03:02:56.280Z,20.63
2022-08-28T03:05:22.560Z,20.62
2022-08-28T03:07:48.840Z,20.60
2022-08-28T03:10:15.128Z,20.58
2022-08-28T03:12:43.263Z,20.57
2022-08-28T03:15:09.495Z,20.55
2022-08-28T03:17:36.023Z,20.54
2022-08-28T03:20:04.388Z,20.52
2022-08-28T03:22:30.664Z,20.51
2022-08-28T03:24:56.931Z,20.49
2022-08-28T03:27:23.152Z,20.47
2022-08-28T03:29:49.451Z,20.46
2022-08-28T03:32:15.741Z,20.42
2022-08-28T03:34:42.199Z,20.41
2022-08-28T03:37:08.464Z,20.38
2022-08-28T03:39:36.120Z,20.35
2022-08-28T03:42:02.386Z,20.33
2022-08-28T03:44:28.754Z,20.31
2022-08-28T03:46:55.168Z,20.29
2022-08-28T03:49:21.923Z,20.27
2022-08-28T03:51:49.468Z,20.23
2022-08-28T03:54:16.007Z,20.21
2022-08-28T03:56:42.293Z,20.19
2022-08-28T03:59:08.573Z,20.14
2022-08-28T04:01:34.922Z,20.12
2022-08-28T04:04:01.356Z,20.08
2022-08-28T04:06:27.744Z,20.06
2022-08-28T04:08:54.089Z,20.04
2022-08-28T04:11:20.404Z,20.02
2022-08-28T04:13:46.697Z,19.99
2022-08-28T04:16:12.985Z,19.96
2022-08-28T04:18:39.446Z,19.93
2022-08-28T04:21:05.885Z,19.91
2022-08-28T04:23:32.314Z,19.88
2022-08-28T04:25:58.857Z,19.86
2022-08-28T04:28:25.577Z,19.82
2022-08-28T04:30:51.863Z,19.80
2022-08-28T04:33:18.123Z,19.78
2022-08-28T04:35:44.340Z,19.75
2022-08-28T04:38:10.750Z,19.73
2022-08-28T04:40:37.252Z,19.70
2022-08-28T04:43:03.770Z,19.68
2022-08-28T04:45:30.593Z,19.66
2022-08-28T04:47:57.020Z,19.64
2022-08-28T04:50:26.737Z,19.63
2022-08-28T04:52:53.453Z,19.63
2022-08-28T04:55:48.476Z,19.63
2022-08-28T04:58:06.306Z,19.61
2022-08-28T05:00:33.728Z,19.59
2022-08-28T05:03:01.371Z,19.57
2022-08-28T05:05:29.214Z,19.55
2022-08-28T05:07:55.500Z,19.54
2022-08-28T05:10:21.832Z,19.54
2022-08-28T05:13:03.694Z,19.53
2022-08-28T05:15:33.123Z,19.56
2022-08-28T05:18:01.440Z,19.54
2022-08-28T05:20:27.910Z,19.54
2022-08-28T05:22:54.303Z,19.60
2022-08-28T05:25:29.639Z,19.59
2022-08-28T05:27:55.964Z,19.56
2022-08-28T05:30:22.496Z,19.54
2022-08-28T05:32:48.828Z,19.53
2022-08-28T05:35:16.504Z,19.52
2022-08-28T05:37:45.210Z,19.53
2022-08-28T05:40:12.091Z,19.55
2022-08-28T05:42:39.226Z,19.56
2022-08-28T05:45:06.932Z,19.74
2022-08-28T05:47:37.073Z,19.80
2022-08-28T05:53:54.865Z,20.09
2022-08-28T05:58:58.856Z,20.15
2022-08-28T06:01:25.262Z,20.12
2022-08-28T06:03:51.712Z,20.15
2022-08-28T06:06:21.238Z,20.17
2022-08-28T06:08:58.639Z,20.20
2022-08-28T06:11:25.585Z,20.25
2022-08-28T06:13:53.387Z,20.27
2022-08-28T06:16:20.518Z,20.30
2022-08-28T06:18:49.417Z,20.34
2022-08-28T06:21:15.749Z,20.42
2022-08-28T06:23:42.107Z,20.58
2022-08-28T06:26:08.639Z,20.88
2022-08-28T06:28:34.979Z,21.14
2022-08-28T06:31:23.020Z,21.39
2022-08-28T06:33:47.695Z,21.34
2022-08-28T06:36:20.006Z,21.47
2022-08-28T06:38:48.694Z,21.45
2022-08-28T06:41:15.086Z,21.48
2022-08-28T06:43:43.316Z,21.42
2022-08-28T06:46:09.945Z,21.46
2022-08-28T06:48:36.401Z,21.74
2022-08-28T06:51:07.859Z,21.83
2022-08-28T06:53:34.425Z,21.81
2022-08-28T06:56:03.400Z,21.88
2022-08-28T06:58:29.857Z,21.89
2022-08-28T07:01:02.896Z,21.90
2022-08-28T07:03:32.149Z,22.16
2022-08-28T07:06:04.008Z,22.44
2022-08-28T07:08:30.548Z,22.68
2022-08-28T07:10:58.188Z,22.87
2022-08-28T07:13:29.108Z,23.02
2022-08-28T07:15:57.652Z,23.23
2022-08-28T07:18:24.194Z,23.42
2022-08-28T07:20:50.794Z,23.58
2022-08-28T07:23:17.142Z,23.75
2022-08-28T07:25:43.568Z,23.90
2022-08-28T07:28:10.070Z,24.00
2022-08-28T07:30:36.419Z,24.13
2022-08-28T07:33:05.761Z,24.22
2022-08-28T07:35:33.723Z,24.30
2022-08-28T07:38:02.841Z,24.53
2022-08-28T07:40:31.239Z,24.74
2022-08-28T07:42:57.891Z,24.85
2022-08-28T07:45:24.514Z,24.90
2022-08-28T07:47:52.887Z,24.96
2022-08-28T07:50:22.613Z,25.18
2022-08-28T07:53:00.983Z,25.13
2022-08-28T07:55:52.265Z,24.76
2022-08-28T07:58:25.907Z,24.71
2022-08-28T08:01:10.648Z,24.77
2022-08-28T08:03:38.395Z,24.71
2022-08-28T08:06:08.031Z,24.75
2022-08-28T08:09:05.972Z,24.85
2022-08-28T08:11:32.342Z,24.96
2022-08-28T08:13:59.382Z,25.37
2022-08-28T08:16:28.812Z,25.02
2022-08-28T08:18:56.620Z,24.85
2022-08-28T08:21:26.073Z,24.78
2022-08-28T08:23:54.731Z,24.65
2022-08-28T08:26:27.142Z,24.57
2022-08-28T08:28:53.548Z,24.61
2022-08-28T08:31:20.054Z,24.75
2022-08-28T08:33:49.393Z,24.73
2022-08-28T08:36:18.654Z,24.62
2022-08-28T08:38:44.964Z,24.49
2022-08-28T08:41:12.606Z,24.41
2022-08-28T08:43:42.285Z,24.38
2022-08-28T08:46:08.592Z,24.54
2022-08-28T08:48:36.177Z,25.55
2022-08-28T08:51:03.510Z,25.96
2022-08-28T08:53:29.962Z,25.90
2022-08-28T08:56:00.849Z,25.29
2022-08-28T08:58:27.277Z,25.14
2022-08-28T09:01:06.905Z,25.06
2022-08-28T09:03:37.769Z,25.08
2022-08-28T09:06:10.705Z,25.41
2022-08-28T09:08:37.192Z,25.98
2022-08-28T09:11:06.965Z,25.76
2022-08-28T09:13:33.313Z,25.44
2022-08-28T09:16:01.985Z,25.40
2022-08-28T09:18:28.531Z,25.44
2022-08-28T09:20:57.593Z,25.40
2022-08-28T09:23:23.920Z,25.44
2022-08-28T09:25:50.865Z,25.47
2022-08-28T09:28:17.915Z,25.50
2022-08-28T09:30:44.439Z,25.55
2022-08-28T09:33:11.396Z,25.59
2022-08-28T09:35:38.838Z,25.63
2022-08-28T09:38:05.548Z,25.67
2022-08-28T09:40:31.981Z,25.72
2022-08-28T09:42:58.394Z,25.71
2022-08-28T09:45:24.760Z,25.71
2022-08-28T09:47:52.581Z,25.73
2022-08-28T09:50:20.209Z,25.70
2022-08-28T09:52:46.549Z,25.74
2022-08-28T09:55:12.878Z,25.76
2022-08-28T09:57:39.181Z,25.77
2022-08-28T10:00:05.532Z,25.79
2022-08-28T10:02:31.904Z,25.78
2022-08-28T10:04:58.363Z,25.78
2022-08-28T10:07:24.800Z,25.75
2022-08-28T10:09:51.238Z,25.78
2022-08-28T10:12:17.785Z,25.79
2022-08-28T10:14:44.217Z,25.81
2022-08-28T10:17:13.806Z,25.84
2022-08-28T10:19:40.908Z,25.86
2022-08-28T10:22:07.301Z,25.90
2022-08-28T10:24:33.705Z,25.92
2022-08-28T10:27:00.661Z,25.93
2022-08-28T10:29:27.538Z,25.96
2022-08-28T10:31:53.858Z,26.00
2022-08-28T10:34:20.111Z,25.99
2022-08-28T10:36:46.430Z,26.02
2022-08-28T10:39:13.831Z,26.08
2022-08-28T10:41:40.282Z,26.12
2022-08-28T10:44:07.289Z,26.16
2022-08-28T10:46:35.808Z,26.19
2022-08-28T10:49:02.272Z,26.23
2022-08-28T10:51:43.711Z,26.25
2022-08-28T10:54:10.950Z,26.28
2022-08-28T10:56:41.973Z,26.31
2022-08-28T10:59:08.476Z,26.33
2022-08-28T11:01:38.878Z,26.36
2022-08-28T11:04:07.628Z,26.39
2022-08-28T11:06:35.436Z,26.39
2022-08-28T11:09:01.782Z,26.40
2022-08-28T11:11:28.333Z,26.41
2022-08-28T11:13:55.645Z,26.42
2022-08-28T11:16:22.544Z,26.41
2022-08-28T11:18:50.215Z,26.40
2022-08-28T11:21:16.479Z,26.39
2022-08-28T11:23:42.851Z,26.40
2022-08-28T11:26:09.096Z,26.40
2022-08-28T11:28:35.460Z,26.41
2022-08-28T11:31:01.797Z,26.44
2022-08-28T11:33:28.341Z,26.45
2022-08-28T11:35:54.720Z,26.47
2022-08-28T11:38:21.364Z,26.47
2022-08-28T11:40:47.701Z,26.48
2022-08-28T11:43:14.304Z,26.50
2022-08-28T11:45:43.004Z,26.52
2022-08-28T11:48:13.235Z,26.55
2022-08-28T11:50:39.522Z,26.57
2022-08-28T11:53:13.861Z,26.62
2022-08-28T11:55:48.218Z,26.64
2022-08-28T12:00:55.040Z,26.65
2022-08-28T12:03:21.393Z,26.65
2022-08-28T12:05:47.720Z,26.64
2022-08-28T12:08:14.095Z,26.64
2022-08-28T12:10:40.550Z,26.63
2022-08-28T12:13:06.977Z,26.64
2022-08-28T12:15:37.282Z,26.65
2022-08-28T12:18:05.645Z,26.66
2022-08-28T12:20:32.653Z,26.70
2022-08-28T12:22:58.995Z,26.70
2022-08-28T12:25:25.607Z,26.71
2022-08-28T12:27:53.179Z,26.72
2022-08-28T12:30:19.604Z,26.72
2022-08-28T12:32:45.871Z,26.74
2022-08-28T12:35:12.279Z,26.73
2022-08-28T12:37:52.335Z,26.72
2022-08-28T12:40:19.692Z,26.70
2022-08-28T12:42:46.120Z,26.68
2022-08-28T12:45:33.344Z,26.67
2022-08-28T12:48:03.637Z,26.64
2022-08-28T12:51:03.148Z,26.63
2022-08-28T12:53:19.625Z,26.62
2022-08-28T12:55:45.975Z,26.62
2022-08-28T12:58:16.292Z,26.62
2022-08-28T13:00:42.705Z,26.63
2022-08-28T13:03:09.622Z,26.65
2022-08-28T13:05:35.978Z,26.66
2022-08-28T13:08:03.788Z,26.67
2022-08-28T13:10:31.909Z,26.66
2022-08-28T13:13:02.042Z,26.65
2022-08-28T13:15:33.021Z,26.65
2022-08-28T13:17:59.482Z,26.64
2022-08-28T13:20:25.913Z,26.63
2022-08-28T13:22:54.925Z,26.63
2022-08-28T13:25:21.812Z,26.62
2022-08-28T13:27:48.382Z,26.61
2022-08-28T13:30:14.778Z,26.61
2022-08-28T13:32:41.564Z,26.60
2022-08-28T13:35:07.945Z,26.58
2022-08-28T13:37:34.338Z,26.55
2022-08-28T13:40:02.525Z,26.55
2022-08-28T13:42:32.252Z,26.52
2022-08-28T13:44:59.889Z,26.51
2022-08-28T13:47:26.316Z,26.48
2022-08-28T13:49:52.696Z,26.46
2022-08-28T13:52:22.457Z,26.45
2022-08-28T13:54:48.756Z,26.43
2022-08-28T13:57:15.128Z,26.41
2022-08-28T13:59:41.551Z,26.38
2022-08-28T14:02:12.185Z,26.37
2022-08-28T14:07:25.033Z,26.35
2022-08-28T14:09:56.014Z,26.35
2022-08-28T14:12:22.849Z,26.33
2022-08-28T14:14:57.749Z,26.31
2022-08-28T14:17:26.126Z,26.30
2022-08-28T14:19:54.302Z,26.30
2022-08-28T14:22:20.618Z,26.28
2022-08-28T14:24:48.245Z,26.26
2022-08-28T14:27:15.886Z,26.25
2022-08-28T14:29:42.265Z,26.25
2022-08-28T14:32:10.577Z,26.24
2022-08-28T14:34:37.475Z,26.22
2022-08-28T14:37:03.962Z,26.21
2022-08-28T14:39:30.413Z,26.19
2022-08-28T14:41:56.827Z,26.18
2022-08-28T14:44:23.462Z,26.17
2022-08-28T14:46:51.127Z,26.15
2022-08-28T14:49:20.029Z,26.12
2022-08-28T14:51:47.677Z,26.10
2022-08-28T14:54:17.553Z,26.08
2022-08-28T14:56:44.170Z,26.05
2022-08-28T14:59:16.032Z,26.03
2022-08-28T15:01:44.480Z,26.02
2022-08-28T15:04:11.220Z,26.01
2022-08-28T15:06:37.924Z,26.00
2022-08-28T15:09:08.825Z,25.99
2022-08-28T15:11:42.629Z,25.97
2022-08-28T15:14:08.967Z,25.96
2022-08-28T15:16:35.261Z,25.94
2022-08-28T15:19:01.791Z,25.93
2022-08-28T15:21:28.134Z,25.90
2022-08-28T15:23:59.377Z,25.90
2022-08-28T15:26:25.690Z,25.87
2022-08-28T15:28:51.952Z,25.87
2022-08-28T15:31:18.419Z,25.84
2022-08-28T15:33:46.833Z,25.81
2022-08-28T15:36:13.098Z,25.80
2022-08-28T15:38:39.416Z,25.78
2022-08-28T15:41:05.666Z,25.76
2022-08-28T15:43:31.975Z,25.75
2022-08-28T15:45:58.254Z,25.73
2022-08-28T15:48:24.540Z,25.72
2022-08-28T15:50:50.833Z,25.70
2022-08-28T15:53:18.918Z,25.69
2022-08-28T15:55:45.223Z,25.67
2022-08-28T15:58:13.888Z,25.67
2022-08-28T16:00:40.803Z,25.65
2022-08-28T16:03:07.139Z,25.62
2022-08-28T16:05:33.422Z,25.59
2022-08-28T16:08:01.784Z,25.56
2022-08-28T16:10:28.443Z,25.53
2022-08-28T16:12:57.509Z,25.52
2022-08-28T16:15:24.070Z,25.50
2022-08-28T16:17:50.299Z,25.46
2022-08-28T16:20:16.711Z,25.43
2022-08-28T16:22:42.951Z,25.41
2022-08-28T16:25:09.199Z,25.39
2022-08-28T16:27:35.519Z,25.37
2022-08-28T16:30:02.423Z,25.34
2022-08-28T16:32:29.038Z,25.31
2022-08-28T16:34:55.301Z,25.28
2022-08-28T16:37:21.859Z,25.27
2022-08-28T16:39:49.503Z,25.25
2022-08-28T16:42:16.044Z,25.23
2022-08-28T16:44:43.406Z,25.21
2022-08-28T16:47:09.740Z,25.16
2022-08-28T16:49:36.037Z,25.14
2022-08-28T16:52:02.277Z,25.12
2022-08-28T16:57:12.994Z,25.06
2022-08-28T16:59:39.239Z,25.03
2022-08-28T17:02:06.052Z,25.01
2022-08-28T17:04:32.824Z,24.98
2022-08-28T17:06:59.095Z,24.94
2022-08-28T17:09:25.353Z,24.93
2022-08-28T17:11:52.552Z,24.92
2022-08-28T17:14:19.126Z,24.89
2022-08-28T17:16:45.412Z,24.87
2022-08-28T17:19:11.737Z,24.86
2022-08-28T17:21:37.999Z,24.83
2022-08-28T17:24:04.231Z,24.81
2022-08-28T17:26:30.848Z,24.77
2022-08-28T17:28:57.124Z,24.76
2022-08-28T17:31:23.629Z,24.73
2022-08-28T17:33:50.371Z,24.70
2022-08-28T17:36:30.715Z,24.66
2022-08-28T17:38:59.271Z,24.62
2022-08-28T17:41:25.529Z,24.59
2022-08-28T17:43:52.010Z,24.57
2022-08-28T17:46:18.422Z,24.53
2022-08-28T17:48:54.370Z,24.50
2022-08-28T17:51:33.116Z,24.47
2022-08-28T17:54:08.600Z,24.42
2022-08-28T17:56:36.070Z,24.39
2022-08-28T17:59:03.715Z,24.34
2022-08-28T18:01:30.082Z,24.30
2022-08-28T18:03:56.373Z,24.25
2022-08-28T18:06:22.715Z,24.22
2022-08-28T18:08:49.023Z,24.18
2022-08-28T18:11:15.331Z,24.14
2022-08-28T18:13:41.602Z,24.10
2022-08-28T18:16:07.881Z,24.06
2022-08-28T18:18:36.510Z,24.03
2022-08-28T18:21:02.976Z,23.99
2022-08-28T18:23:29.288Z,23.93
2022-08-28T18:25:55.792Z,23.90
2022-08-28T18:28:22.515Z,23.86
2022-08-28T18:30:49.027Z,23.81
2022-08-28T18:33:15.524Z,23.78
2022-08-28T18:35:44.209Z,23.72
2022-08-28T18:38:13.006Z,23.68
2022-08-28T18:40:39.402Z,23.64
2022-08-28T18:43:08.487Z,23.59
2022-08-28T18:45:34.714Z,23.56
2022-08-28T18:48:00.966Z,23.51
2022-08-28T18:50:27.549Z,23.47
2022-08-28T18:52:53.850Z,23.42
2022-08-28T18:55:20.125Z,23.37
2022-08-28T18:57:48.752Z,23.33
2022-08-28T19:00:18.263Z,23.29
2022-08-28T19:02:44.605Z,23.25
2022-08-28T19:05:11.027Z,23.21
2022-08-28T19:07:40.666Z,23.16
2022-08-28T19:10:18.215Z,23.11
2022-08-28T19:12:53.304Z,23.03
2022-08-28T19:15:19.650Z,22.97
2022-08-28T19:17:46.540Z,22.89
2022-08-28T19:20:12.862Z,22.80
2022-08-28T19:22:39.127Z,22.71
2022-08-28T19:25:05.396Z,22.64
2022-08-28T19:27:37.795Z,22.56
2022-08-28T19:30:04.076Z,22.48
2022-08-28T19:32:30.596Z,22.39
2022-08-28T19:34:56.905Z,22.32
2022-08-28T19:37:23.370Z,22.25
2022-08-28T19:39:56.486Z,22.20
2022-08-28T19:42:22.984Z,22.16
2022-08-28T19:44:51.193Z,22.12
2022-08-28T19:47:26.356Z,22.08
2022-08-28T19:49:52.606Z,22.06
2022-08-28T19:52:20.676Z,22.04
2022-08-28T19:54:47.005Z,22.00
2022-08-28T19:57:13.500Z,21.98
2022-08-28T19:59:41.177Z,21.95
2022-08-28T20:02:11.385Z,21.89
2022-08-28T20:04:37.714Z,21.86
2022-08-28T20:07:04.646Z,21.82
2022-08-28T20:09:33.161Z,21.78
2022-08-28T20:11:59.396Z,21.74
2022-08-28T20:14:25.665Z,21.69
2022-08-28T20:16:51.987Z,21.65
2022-08-28T20:19:18.495Z,21.60
2022-08-28T20:21:45.026Z,21.57
2022-08-28T20:24:11.495Z,21.54
2022-08-28T20:26:37.805Z,21.49
2022-08-28T20:29:04.413Z,21.44
2022-08-28T20:31:30.916Z,21.40
2022-08-28T20:33:57.164Z,21.35
2022-08-28T20:36:23.422Z,21.31
2022-08-28T20:38:49.718Z,21.25
2022-08-28T20:41:16.031Z,21.21
2022-08-28T20:43:43.201Z,21.17
2022-08-28T20:46:09.967Z,21.11
2022-08-28T20:48:36.226Z,21.08
2022-08-28T20:51:02.453Z,21.05
2022-08-28T20:53:37.104Z,21.02
2022-08-28T20:56:04.448Z,20.97
2022-08-28T20:58:30.908Z,20.94
2022-08-28T21:00:59.631Z,20.90
2022-08-28T21:03:27.776Z,20.89
2022-08-28T21:05:54.847Z,20.88
2022-08-28T21:08:21.614Z,20.86
2022-08-28T21:10:47.971Z,20.84
2022-08-28T21:13:14.387Z,20.83
2022-08-28T21:18:30.968Z,20.76
2022-08-28T21:20:57.241Z,20.73
2022-08-28T21:23:23.518Z,20.72
2022-08-28T21:25:52.534Z,20.70
2022-08-28T21:28:18.970Z,20.68
2022-08-28T21:30:45.826Z,20.66
2022-08-28T21:33:12.453Z,20.63
2022-08-28T21:35:43.855Z,20.60
2022-08-28T21:38:10.534Z,20.57
2022-08-28T21:40:36.909Z,20.54
2022-08-28T21:43:03.254Z,20.52
2022-08-28T21:45:29.518Z,20.50
2022-08-28T21:47:55.764Z,20.48
2022-08-28T21:50:22.027Z,20.46
2022-08-28T21:52:48.545Z,20.41
2022-08-28T21:55:15.072Z,20.38
2022-08-28T21:57:41.343Z,20.38
2022-08-28T22:00:07.599Z,20.37
2022-08-28T22:02:34.045Z,20.36
2022-08-28T22:05:00.501Z,20.35
2022-08-28T22:07:26.839Z,20.34
2022-08-28T22:09:54.215Z,20.35
2022-08-28T22:12:20.635Z,20.34
2022-08-28T22:14:49.018Z,20.33
2022-08-28T22:17:15.344Z,20.31
2022-08-28T22:19:42.082Z,20.30
2022-08-28T22:22:12.995Z,20.29
2022-08-28T22:24:39.234Z,20.27
2022-08-28T22:27:05.605Z,20.25
2022-08-28T22:29:31.942Z,20.23
2022-08-28T22:31:58.147Z,20.22
2022-08-28T22:34:24.898Z,20.21
2022-08-28T22:36:51.193Z,20.19
2022-08-28T22:39:18.705Z,20.17
2022-08-28T22:41:44.970Z,20.15
2022-08-28T22:44:11.195Z,20.14
2022-08-28T22:46:37.774Z,20.13
2022-08-28T22:49:04.062Z,20.11
2022-08-28T22:51:30.311Z,20.10
2022-08-28T22:53:57.623Z,20.08
2022-08-28T22:56:23.917Z,20.08
2022-08-28T22:58:50.452Z,20.07
2022-08-28T23:01:16.797Z,20.04
2022-08-28T23:03:43.714Z,20.03
2022-08-28T23:06:10.045Z,20.01
2022-08-28T23:08:36.273Z,20.00
2022-08-28T23:11:02.556Z,19.99
2022-08-28T23:13:30.690Z,19.97
2022-08-28T23:15:57.008Z,19.95
2022-08-28T23:18:25.707Z,19.94
2022-08-28T23:20:54.022Z,19.92
2022-08-28T23:23:20.653Z,19.91
2022-08-28T23:25:46.920Z,19.89
2022-08-28T23:28:14.560Z,19.87
2022-08-28T23:30:40.855Z,19.86
2022-08-28T23:33:10.419Z,19.84
2022-08-28T23:35:40.600Z,19.83
2022-08-28T23:38:07.519Z,19.81
2022-08-28T23:40:35.629Z,19.80
2022-08-28T23:43:02.395Z,19.79
2022-08-28T23:45:28.723Z,19.79
2022-08-28T23:47:56.464Z,19.76
2022-08-28T23:50:22.955Z,19.76
2022-08-28T23:52:49.400Z,19.74
2022-08-28T23:55:18.558Z,19.72
2022-08-28T23:57:45.840Z,19.71
